This is the latest recevied weather packets stored in our database for station/object EFTU. If no packets are shown the sender has not sent any weather packets the latest 1 day(s).
| Time | Temp. | Humidity | Pressure | Rain* | Wind** | Luminosity | Snow |
|---|---|---|---|---|---|---|---|
| 1778094445 | 5° C | 32% | 1014.8 hPa | - | - | - | - |
| 1778093245 | 5.56° C | 30% | 1014.7 hPa | - | - | - | - |
| 1778092046 | 6.67° C | 26% | 1014.7 hPa | - | - | - | - |
| 1778089646 | 7.22° C | 26% | 1014.6 hPa | - | - | - | - |
| 1778087245 | 8.33° C | 23% | 1014.5 hPa | - | - | - | - |
| 1778082445 | 9.44° C | 22% | 1014.3 hPa | - | - | - | - |
| 1778078844 | 10.56° C | 21% | 1014.4 hPa | - | - | - | - |
| 1778076444 | 10.56° C | 22% | 1014.4 hPa | - | - | - | - |
| 1778074044 | 10° C | 21% | 1014.5 hPa | - | - | - | - |
| 1778069244 | 9.44° C | 22% | 1014.3 hPa | - | - | - | - |
| 1778065644 | 10.56° C | 26% | 1014.2 hPa | - | - | - | - |
| 1778064445 | 9.44° C | 22% | 1014.2 hPa | - | - | - | - |
| 1778062046 | 9.44° C | 26% | 1014 hPa | - | - | - | - |
| 1778060846 | 8.89° C | 26% | 1013.9 hPa | - | - | - | - |
| 1778059645 | 8.33° C | 31% | 1013.7 hPa | - | - | - | - |
| 1778058445 | 10° C | 33% | 1013.6 hPa | - | - | - | - |
| 1778057246 | 9.44° C | 34% | 1013.7 hPa | - | - | - | - |
| 1778056046 | 7.78° C | 37% | 1013.6 hPa | - | - | - | - |
| 1778054845 | 8.89° C | 40% | 1013.5 hPa | - | - | - | - |
| 1778051245 | 8.33° C | 50% | 1012.9 hPa | - | - | - | - |
| 1778048845 | 7.22° C | 53% | 1012.7 hPa | - | - | - | - |
| 1778047645 | 6.67° C | 56% | 1012.6 hPa | - | - | - | - |
| 1778046444 | 6.11° C | 61% | 1012.4 hPa | - | - | - | - |
| 1778045245 | 5.56° C | 68% | 1012.2 hPa | - | - | - | - |
| 1778044044 | 5° C | 73% | 1012.1 hPa | - | - | - | - |
* Rain since midnight (hover to see other rain measurements)
** Current wind speed in m/s (hover to see current wind gust speed)